sensor_id;sensor_type;location;lat;lon;timestamp;P1;durP1;ratioP1;P2;durP2;ratioP2
17890;SDS011;9071;48.220;14.480;2023-02-28T00:04:11;10.20;;;6.07;;
17890;SDS011;9071;48.220;14.480;2023-02-28T00:09:13;11.23;;;6.73;;
17890;SDS011;9071;48.220;14.480;2023-02-28T00:14:15;11.37;;;6.33;;
17890;SDS011;9071;48.220;14.480;2023-02-28T00:19:18;15.47;;;7.00;;
17890;SDS011;9071;48.220;14.480;2023-02-28T00:24:20;14.97;;;7.70;;
17890;SDS011;9071;48.220;14.480;2023-02-28T00:29:22;10.57;;;6.07;;
17890;SDS011;9071;48.220;14.480;2023-02-28T00:34:26;13.10;;;7.63;;
17890;SDS011;9071;48.220;14.480;2023-02-28T00:39:28;15.80;;;8.00;;
17890;SDS011;9071;48.220;14.480;2023-02-28T00:44:30;15.10;;;8.50;;
17890;SDS011;9071;48.220;14.480;2023-02-28T00:49:34;15.50;;;8.07;;
17890;SDS011;9071;48.220;14.480;2023-02-28T00:54:36;16.33;;;8.10;;
17890;SDS011;9071;48.220;14.480;2023-02-28T00:59:38;16.43;;;7.87;;
17890;SDS011;9071;48.220;14.480;2023-02-28T01:04:42;16.07;;;8.57;;
17890;SDS011;9071;48.220;14.480;2023-02-28T01:09:44;16.57;;;8.50;;
17890;SDS011;9071;48.220;14.480;2023-02-28T01:14:46;16.97;;;8.60;;
17890;SDS011;9071;48.220;14.480;2023-02-28T01:19:49;19.60;;;9.73;;
17890;SDS011;9071;48.220;14.480;2023-02-28T01:24:55;14.77;;;8.50;;
17890;SDS011;9071;48.220;14.480;2023-02-28T01:29:57;15.93;;;8.57;;
17890;SDS011;9071;48.220;14.480;2023-02-28T01:35:00;14.33;;;8.67;;
17890;SDS011;9071;48.220;14.480;2023-02-28T01:40:03;17.40;;;9.23;;
17890;SDS011;9071;48.220;14.480;2023-02-28T01:45:08;19.37;;;9.57;;
17890;SDS011;9071;48.220;14.480;2023-02-28T01:50:23;17.97;;;9.60;;
17890;SDS011;9071;48.220;14.480;2023-02-28T01:55:27;18.27;;;9.70;;
17890;SDS011;9071;48.220;14.480;2023-02-28T02:00:30;19.37;;;10.50;;
17890;SDS011;9071;48.220;14.480;2023-02-28T02:05:34;22.37;;;10.37;;
17890;SDS011;9071;48.220;14.480;2023-02-28T02:10:40;20.90;;;9.93;;
17890;SDS011;9071;48.220;14.480;2023-02-28T02:15:44;20.00;;;10.60;;
17890;SDS011;9071;48.220;14.480;2023-02-28T02:21:15;17.33;;;9.00;;
17890;SDS011;9071;48.220;14.480;2023-02-28T02:26:44;17.90;;;9.37;;
17890;SDS011;9071;48.220;14.480;2023-02-28T02:37:36;18.83;;;9.73;;
17890;SDS011;9071;48.220;14.480;2023-02-28T02:42:45;18.00;;;10.47;;
17890;SDS011;9071;48.220;14.480;2023-02-28T02:47:52;18.57;;;10.90;;
17890;SDS011;9071;48.220;14.480;2023-02-28T02:52:58;16.97;;;9.30;;
17890;SDS011;9071;48.220;14.480;2023-02-28T02:58:04;16.53;;;9.30;;
17890;SDS011;9071;48.220;14.480;2023-02-28T03:03:09;20.63;;;10.60;;
17890;SDS011;9071;48.220;14.480;2023-02-28T03:08:13;16.47;;;9.27;;
17890;SDS011;9071;48.220;14.480;2023-02-28T03:13:20;15.47;;;9.47;;
17890;SDS011;9071;48.220;14.480;2023-02-28T03:18:36;18.03;;;9.83;;
17890;SDS011;9071;48.220;14.480;2023-02-28T03:23:51;13.67;;;8.40;;
17890;SDS011;9071;48.220;14.480;2023-02-28T03:29:00;18.30;;;8.23;;
17890;SDS011;9071;48.220;14.480;2023-02-28T03:34:08;15.67;;;8.53;;
17890;SDS011;9071;48.220;14.480;2023-02-28T03:39:20;20.80;;;9.60;;
17890;SDS011;9071;48.220;14.480;2023-02-28T03:44:26;15.20;;;8.37;;
17890;SDS011;9071;48.220;14.480;2023-02-28T03:49:34;17.97;;;8.53;;
17890;SDS011;9071;48.220;14.480;2023-02-28T03:54:45;18.93;;;8.70;;
17890;SDS011;9071;48.220;14.480;2023-02-28T03:59:51;15.03;;;8.33;;
17890;SDS011;9071;48.220;14.480;2023-02-28T04:04:58;17.67;;;8.30;;
17890;SDS011;9071;48.220;14.480;2023-02-28T04:10:03;18.20;;;9.07;;
17890;SDS011;9071;48.220;14.480;2023-02-28T04:15:06;17.43;;;8.47;;
17890;SDS011;9071;48.220;14.480;2023-02-28T04:20:10;17.60;;;8.37;;
17890;SDS011;9071;48.220;14.480;2023-02-28T04:25:14;15.53;;;7.80;;
17890;SDS011;9071;48.220;14.480;2023-02-28T04:30:17;17.10;;;8.90;;
17890;SDS011;9071;48.220;14.480;2023-02-28T04:35:19;15.80;;;7.73;;
17890;SDS011;9071;48.220;14.480;2023-02-28T04:40:22;15.07;;;7.50;;
17890;SDS011;9071;48.220;14.480;2023-02-28T04:45:24;14.90;;;7.80;;
17890;SDS011;9071;48.220;14.480;2023-02-28T04:50:26;17.70;;;8.80;;
17890;SDS011;9071;48.220;14.480;2023-02-28T04:55:30;17.47;;;8.20;;
17890;SDS011;9071;48.220;14.480;2023-02-28T05:00:32;20.63;;;8.53;;
17890;SDS011;9071;48.220;14.480;2023-02-28T05:05:34;16.80;;;8.33;;
17890;SDS011;9071;48.220;14.480;2023-02-28T05:10:38;14.43;;;8.50;;
17890;SDS011;9071;48.220;14.480;2023-02-28T05:15:40;18.77;;;9.57;;
17890;SDS011;9071;48.220;14.480;2023-02-28T05:20:42;21.43;;;9.20;;
17890;SDS011;9071;48.220;14.480;2023-02-28T05:25:45;23.37;;;10.07;;
17890;SDS011;9071;48.220;14.480;2023-02-28T05:30:47;21.27;;;10.03;;
17890;SDS011;9071;48.220;14.480;2023-02-28T05:35:50;19.63;;;9.83;;
17890;SDS011;9071;48.220;14.480;2023-02-28T05:40:53;23.57;;;11.87;;
17890;SDS011;9071;48.220;14.480;2023-02-28T05:45:56;19.80;;;10.37;;
17890;SDS011;9071;48.220;14.480;2023-02-28T05:50:58;19.23;;;10.57;;
17890;SDS011;9071;48.220;14.480;2023-02-28T05:56:01;21.83;;;9.77;;
17890;SDS011;9071;48.220;14.480;2023-02-28T06:01:19;23.30;;;10.77;;
17890;SDS011;9071;48.220;14.480;2023-02-28T06:06:23;22.60;;;9.63;;
17890;SDS011;9071;48.220;14.480;2023-02-28T06:11:26;23.23;;;10.30;;
17890;SDS011;9071;48.220;14.480;2023-02-28T06:16:29;21.10;;;9.90;;
17890;SDS011;9071;48.220;14.480;2023-02-28T06:21:33;20.33;;;9.90;;
17890;SDS011;9071;48.220;14.480;2023-02-28T06:26:36;21.70;;;10.60;;
17890;SDS011;9071;48.220;14.480;2023-02-28T06:31:38;21.10;;;10.63;;
17890;SDS011;9071;48.220;14.480;2023-02-28T06:36:41;21.60;;;9.80;;
17890;SDS011;9071;48.220;14.480;2023-02-28T06:41:45;21.17;;;9.93;;
17890;SDS011;9071;48.220;14.480;2023-02-28T06:46:48;19.13;;;9.60;;
17890;SDS011;9071;48.220;14.480;2023-02-28T06:51:50;18.43;;;9.27;;
17890;SDS011;9071;48.220;14.480;2023-02-28T06:56:54;16.13;;;7.50;;
17890;SDS011;9071;48.220;14.480;2023-02-28T07:01:56;14.83;;;8.33;;
17890;SDS011;9071;48.220;14.480;2023-02-28T07:06:58;17.33;;;8.77;;
17890;SDS011;9071;48.220;14.480;2023-02-28T07:12:02;14.83;;;7.70;;
17890;SDS011;9071;48.220;14.480;2023-02-28T07:17:06;13.70;;;7.53;;
17890;SDS011;9071;48.220;14.480;2023-02-28T07:22:08;19.30;;;8.17;;
17890;SDS011;9071;48.220;14.480;2023-02-28T07:27:12;13.03;;;8.57;;
17890;SDS011;9071;48.220;14.480;2023-02-28T07:32:25;15.27;;;8.50;;
17890;SDS011;9071;48.220;14.480;2023-02-28T07:37:27;15.63;;;8.80;;
17890;SDS011;9071;48.220;14.480;2023-02-28T07:42:32;16.13;;;8.73;;
17890;SDS011;9071;48.220;14.480;2023-02-28T07:47:35;15.80;;;8.83;;
17890;SDS011;9071;48.220;14.480;2023-02-28T07:52:37;14.43;;;8.20;;
17890;SDS011;9071;48.220;14.480;2023-02-28T07:57:41;12.70;;;7.70;;
17890;SDS011;9071;48.220;14.480;2023-02-28T08:02:43;17.70;;;7.97;;
17890;SDS011;9071;48.220;14.480;2023-02-28T08:07:45;12.33;;;7.17;;
17890;SDS011;9071;48.220;14.480;2023-02-28T08:12:51;15.27;;;8.23;;
17890;SDS011;9071;48.220;14.480;2023-02-28T08:17:53;14.93;;;8.27;;
17890;SDS011;9071;48.220;14.480;2023-02-28T08:22:56;15.70;;;8.43;;
17890;SDS011;9071;48.220;14.480;2023-02-28T08:27:59;15.33;;;8.80;;
17890;SDS011;9071;48.220;14.480;2023-02-28T08:33:02;14.00;;;7.90;;
17890;SDS011;9071;48.220;14.480;2023-02-28T08:38:04;18.43;;;8.50;;
17890;SDS011;9071;48.220;14.480;2023-02-28T08:43:09;16.10;;;7.83;;
17890;SDS011;9071;48.220;14.480;2023-02-28T08:48:11;17.27;;;8.70;;
17890;SDS011;9071;48.220;14.480;2023-02-28T08:53:13;13.70;;;8.33;;
17890;SDS011;9071;48.220;14.480;2023-02-28T08:58:17;12.90;;;8.00;;
17890;SDS011;9071;48.220;14.480;2023-02-28T09:03:19;15.03;;;8.57;;
17890;SDS011;9071;48.220;14.480;2023-02-28T09:08:22;13.27;;;8.43;;
17890;SDS011;9071;48.220;14.480;2023-02-28T09:13:26;15.30;;;8.87;;
17890;SDS011;9071;48.220;14.480;2023-02-28T09:18:29;15.37;;;8.70;;
17890;SDS011;9071;48.220;14.480;2023-02-28T09:23:31;14.63;;;9.00;;
17890;SDS011;9071;48.220;14.480;2023-02-28T09:28:35;14.10;;;8.93;;
17890;SDS011;9071;48.220;14.480;2023-02-28T09:33:37;18.73;;;9.50;;
17890;SDS011;9071;48.220;14.480;2023-02-28T09:38:39;13.87;;;8.73;;
17890;SDS011;9071;48.220;14.480;2023-02-28T09:43:45;15.50;;;8.77;;
17890;SDS011;9071;48.220;14.480;2023-02-28T09:48:50;14.43;;;8.80;;
17890;SDS011;9071;48.220;14.480;2023-02-28T09:53:55;13.13;;;8.63;;
17890;SDS011;9071;48.220;14.480;2023-02-28T09:59:00;17.37;;;9.20;;
17890;SDS011;9071;48.220;14.480;2023-02-28T10:04:07;14.73;;;8.77;;
17890;SDS011;9071;48.220;14.480;2023-02-28T10:09:17;17.83;;;9.40;;
17890;SDS011;9071;48.220;14.480;2023-02-28T10:14:26;15.50;;;9.23;;
17890;SDS011;9071;48.220;14.480;2023-02-28T10:19:30;18.33;;;9.37;;
17890;SDS011;9071;48.220;14.480;2023-02-28T10:24:37;14.80;;;8.27;;
17890;SDS011;9071;48.220;14.480;2023-02-28T10:29:45;16.50;;;8.57;;
17890;SDS011;9071;48.220;14.480;2023-02-28T10:34:50;15.63;;;9.03;;
17890;SDS011;9071;48.220;14.480;2023-02-28T10:39:53;13.67;;;8.67;;
17890;SDS011;9071;48.220;14.480;2023-02-28T10:45:10;13.37;;;8.33;;
17890;SDS011;9071;48.220;14.480;2023-02-28T10:50:26;14.27;;;8.80;;
17890;SDS011;9071;48.220;14.480;2023-02-28T10:55:30;13.60;;;8.50;;
17890;SDS011;9071;48.220;14.480;2023-02-28T11:00:34;12.30;;;8.17;;
17890;SDS011;9071;48.220;14.480;2023-02-28T11:05:37;15.00;;;8.30;;
17890;SDS011;9071;48.220;14.480;2023-02-28T11:10:39;14.20;;;8.60;;
17890;SDS011;9071;48.220;14.480;2023-02-28T11:15:51;14.10;;;8.17;;
17890;SDS011;9071;48.220;14.480;2023-02-28T11:20:55;14.13;;;9.17;;
17890;SDS011;9071;48.220;14.480;2023-02-28T11:26:00;15.57;;;8.63;;
17890;SDS011;9071;48.220;14.480;2023-02-28T11:31:15;14.03;;;8.90;;
17890;SDS011;9071;48.220;14.480;2023-02-28T11:36:20;13.13;;;8.23;;
17890;SDS011;9071;48.220;14.480;2023-02-28T11:41:32;14.53;;;9.53;;
17890;SDS011;9071;48.220;14.480;2023-02-28T11:46:46;13.90;;;8.37;;
17890;SDS011;9071;48.220;14.480;2023-02-28T11:51:52;13.70;;;8.73;;
17890;SDS011;9071;48.220;14.480;2023-02-28T11:57:00;16.30;;;8.97;;
17890;SDS011;9071;48.220;14.480;2023-02-28T12:02:22;15.13;;;9.07;;
17890;SDS011;9071;48.220;14.480;2023-02-28T12:07:29;11.27;;;8.70;;
17890;SDS011;9071;48.220;14.480;2023-02-28T12:12:38;15.60;;;9.23;;
17890;SDS011;9071;48.220;14.480;2023-02-28T12:17:58;14.80;;;9.27;;
17890;SDS011;9071;48.220;14.480;2023-02-28T12:23:21;17.60;;;10.23;;
17890;SDS011;9071;48.220;14.480;2023-02-28T12:28:40;17.70;;;9.57;;
17890;SDS011;9071;48.220;14.480;2023-02-28T12:33:50;16.10;;;10.13;;
17890;SDS011;9071;48.220;14.480;2023-02-28T12:38:56;15.57;;;9.27;;
17890;SDS011;9071;48.220;14.480;2023-02-28T12:44:03;13.93;;;9.70;;
17890;SDS011;9071;48.220;14.480;2023-02-28T12:49:12;17.77;;;11.03;;
17890;SDS011;9071;48.220;14.480;2023-02-28T12:54:19;15.30;;;9.63;;
17890;SDS011;9071;48.220;14.480;2023-02-28T12:59:26;16.23;;;10.67;;
17890;SDS011;9071;48.220;14.480;2023-02-28T13:10:16;17.57;;;10.80;;
17890;SDS011;9071;48.220;14.480;2023-02-28T13:15:19;16.60;;;10.13;;
17890;SDS011;9071;48.220;14.480;2023-02-28T13:20:25;15.87;;;10.50;;
17890;SDS011;9071;48.220;14.480;2023-02-28T13:31:04;15.67;;;9.80;;
17890;SDS011;9071;48.220;14.480;2023-02-28T13:36:08;17.20;;;10.20;;
17890;SDS011;9071;48.220;14.480;2023-02-28T13:52:20;16.37;;;10.40;;
17890;SDS011;9071;48.220;14.480;2023-02-28T13:57:27;15.57;;;9.83;;
17890;SDS011;9071;48.220;14.480;2023-02-28T14:02:45;14.20;;;9.37;;
17890;SDS011;9071;48.220;14.480;2023-02-28T14:07:57;17.50;;;10.17;;
17890;SDS011;9071;48.220;14.480;2023-02-28T14:13:10;17.80;;;11.33;;
17890;SDS011;9071;48.220;14.480;2023-02-28T14:18:24;18.53;;;11.13;;
17890;SDS011;9071;48.220;14.480;2023-02-28T14:23:46;17.23;;;10.97;;
17890;SDS011;9071;48.220;14.480;2023-02-28T14:29:03;17.13;;;10.57;;
17890;SDS011;9071;48.220;14.480;2023-02-28T14:39:43;14.67;;;9.87;;
17890;SDS011;9071;48.220;14.480;2023-02-28T14:44:53;16.23;;;10.27;;
17890;SDS011;9071;48.220;14.480;2023-02-28T14:49:55;15.97;;;10.97;;
17890;SDS011;9071;48.220;14.480;2023-02-28T14:55:00;19.40;;;11.87;;
17890;SDS011;9071;48.220;14.480;2023-02-28T15:00:11;17.83;;;12.03;;
17890;SDS011;9071;48.220;14.480;2023-02-28T15:05:26;26.73;;;12.03;;
17890;SDS011;9071;48.220;14.480;2023-02-28T15:10:30;18.20;;;11.63;;
17890;SDS011;9071;48.220;14.480;2023-02-28T15:15:41;17.43;;;11.33;;
17890;SDS011;9071;48.220;14.480;2023-02-28T15:20:46;16.47;;;11.13;;
17890;SDS011;9071;48.220;14.480;2023-02-28T15:25:49;17.70;;;11.43;;
17890;SDS011;9071;48.220;14.480;2023-02-28T15:30:58;18.43;;;11.80;;
17890;SDS011;9071;48.220;14.480;2023-02-28T15:36:06;19.93;;;11.60;;
17890;SDS011;9071;48.220;14.480;2023-02-28T15:41:24;19.77;;;12.87;;
17890;SDS011;9071;48.220;14.480;2023-02-28T15:46:28;16.63;;;11.90;;
17890;SDS011;9071;48.220;14.480;2023-02-28T15:51:32;22.30;;;13.13;;
17890;SDS011;9071;48.220;14.480;2023-02-28T15:56:38;22.60;;;13.33;;
17890;SDS011;9071;48.220;14.480;2023-02-28T16:01:46;20.67;;;13.43;;
17890;SDS011;9071;48.220;14.480;2023-02-28T16:06:53;22.90;;;13.33;;
17890;SDS011;9071;48.220;14.480;2023-02-28T16:12:03;22.87;;;14.70;;
17890;SDS011;9071;48.220;14.480;2023-02-28T16:17:08;23.20;;;13.50;;
17890;SDS011;9071;48.220;14.480;2023-02-28T16:22:20;20.40;;;13.30;;
17890;SDS011;9071;48.220;14.480;2023-02-28T16:27:24;22.00;;;13.97;;
17890;SDS011;9071;48.220;14.480;2023-02-28T16:32:32;24.47;;;14.13;;
17890;SDS011;9071;48.220;14.480;2023-02-28T16:37:36;22.53;;;14.00;;
17890;SDS011;9071;48.220;14.480;2023-02-28T16:42:39;23.47;;;14.37;;
17890;SDS011;9071;48.220;14.480;2023-02-28T16:47:43;24.47;;;13.97;;
17890;SDS011;9071;48.220;14.480;2023-02-28T16:52:46;22.73;;;13.23;;
17890;SDS011;9071;48.220;14.480;2023-02-28T16:57:50;21.97;;;12.73;;
17890;SDS011;9071;48.220;14.480;2023-02-28T17:02:55;23.67;;;12.73;;
17890;SDS011;9071;48.220;14.480;2023-02-28T17:07:59;27.37;;;13.13;;
17890;SDS011;9071;48.220;14.480;2023-02-28T17:13:01;25.53;;;13.33;;
17890;SDS011;9071;48.220;14.480;2023-02-28T17:18:04;21.60;;;13.10;;
17890;SDS011;9071;48.220;14.480;2023-02-28T17:23:07;23.33;;;13.10;;
17890;SDS011;9071;48.220;14.480;2023-02-28T17:28:09;27.17;;;14.20;;
17890;SDS011;9071;48.220;14.480;2023-02-28T17:33:13;21.57;;;13.20;;
17890;SDS011;9071;48.220;14.480;2023-02-28T17:38:16;29.97;;;13.03;;
17890;SDS011;9071;48.220;14.480;2023-02-28T17:43:19;27.10;;;14.23;;
17890;SDS011;9071;48.220;14.480;2023-02-28T17:48:22;23.73;;;13.53;;
17890;SDS011;9071;48.220;14.480;2023-02-28T17:53:24;22.60;;;13.47;;
17890;SDS011;9071;48.220;14.480;2023-02-28T17:58:27;21.87;;;12.73;;
17890;SDS011;9071;48.220;14.480;2023-02-28T18:03:32;26.43;;;13.50;;
17890;SDS011;9071;48.220;14.480;2023-02-28T18:08:34;23.50;;;13.53;;
17890;SDS011;9071;48.220;14.480;2023-02-28T18:13:36;22.00;;;13.20;;
17890;SDS011;9071;48.220;14.480;2023-02-28T18:18:40;24.37;;;14.37;;
17890;SDS011;9071;48.220;14.480;2023-02-28T18:23:43;27.57;;;14.17;;
17890;SDS011;9071;48.220;14.480;2023-02-28T18:28:48;28.90;;;15.17;;
17890;SDS011;9071;48.220;14.480;2023-02-28T18:33:51;20.77;;;13.03;;
17890;SDS011;9071;48.220;14.480;2023-02-28T18:38:53;23.80;;;13.33;;
17890;SDS011;9071;48.220;14.480;2023-02-28T18:43:55;26.93;;;14.13;;
17890;SDS011;9071;48.220;14.480;2023-02-28T18:49:00;27.17;;;14.60;;
17890;SDS011;9071;48.220;14.480;2023-02-28T18:54:02;30.10;;;14.47;;
17890;SDS011;9071;48.220;14.480;2023-02-28T18:59:04;22.63;;;12.87;;
17890;SDS011;9071;48.220;14.480;2023-02-28T19:04:09;24.70;;;13.10;;
17890;SDS011;9071;48.220;14.480;2023-02-28T19:09:13;25.07;;;13.43;;
17890;SDS011;9071;48.220;14.480;2023-02-28T19:14:15;24.13;;;13.43;;
17890;SDS011;9071;48.220;14.480;2023-02-28T19:19:18;25.17;;;13.30;;
17890;SDS011;9071;48.220;14.480;2023-02-28T19:24:20;21.93;;;12.47;;
17890;SDS011;9071;48.220;14.480;2023-02-28T19:29:22;22.20;;;12.67;;
17890;SDS011;9071;48.220;14.480;2023-02-28T19:34:26;21.30;;;12.87;;
17890;SDS011;9071;48.220;14.480;2023-02-28T19:39:28;22.93;;;13.07;;
17890;SDS011;9071;48.220;14.480;2023-02-28T19:44:40;20.40;;;11.90;;
17890;SDS011;9071;48.220;14.480;2023-02-28T19:49:43;20.80;;;13.30;;
17890;SDS011;9071;48.220;14.480;2023-02-28T19:54:45;22.97;;;12.57;;
17890;SDS011;9071;48.220;14.480;2023-02-28T19:59:47;22.07;;;13.27;;
17890;SDS011;9071;48.220;14.480;2023-02-28T20:04:51;21.67;;;13.77;;
17890;SDS011;9071;48.220;14.480;2023-02-28T20:09:54;23.60;;;13.03;;
17890;SDS011;9071;48.220;14.480;2023-02-28T20:14:56;23.90;;;13.13;;
17890;SDS011;9071;48.220;14.480;2023-02-28T20:20:00;23.90;;;14.43;;
17890;SDS011;9071;48.220;14.480;2023-02-28T20:25:02;28.37;;;14.53;;
17890;SDS011;9071;48.220;14.480;2023-02-28T20:30:05;23.47;;;14.47;;
17890;SDS011;9071;48.220;14.480;2023-02-28T20:35:10;26.80;;;14.60;;
17890;SDS011;9071;48.220;14.480;2023-02-28T20:40:13;26.17;;;15.30;;
17890;SDS011;9071;48.220;14.480;2023-02-28T20:45:15;27.13;;;14.77;;
17890;SDS011;9071;48.220;14.480;2023-02-28T20:50:19;27.57;;;15.53;;
17890;SDS011;9071;48.220;14.480;2023-02-28T20:55:21;31.17;;;17.00;;
17890;SDS011;9071;48.220;14.480;2023-02-28T21:00:23;30.57;;;15.73;;
17890;SDS011;9071;48.220;14.480;2023-02-28T21:05:27;28.60;;;15.73;;
17890;SDS011;9071;48.220;14.480;2023-02-28T21:10:29;27.00;;;14.27;;
17890;SDS011;9071;48.220;14.480;2023-02-28T21:15:35;26.70;;;14.90;;
17890;SDS011;9071;48.220;14.480;2023-02-28T21:20:39;24.43;;;13.70;;
17890;SDS011;9071;48.220;14.480;2023-02-28T21:25:41;24.87;;;13.67;;
17890;SDS011;9071;48.220;14.480;2023-02-28T21:30:43;23.33;;;13.83;;
17890;SDS011;9071;48.220;14.480;2023-02-28T21:35:46;25.23;;;15.30;;
17890;SDS011;9071;48.220;14.480;2023-02-28T21:40:48;25.23;;;13.40;;
17890;SDS011;9071;48.220;14.480;2023-02-28T21:45:51;26.13;;;14.30;;
17890;SDS011;9071;48.220;14.480;2023-02-28T21:50:55;28.07;;;14.93;;
17890;SDS011;9071;48.220;14.480;2023-02-28T21:55:58;27.70;;;15.30;;
17890;SDS011;9071;48.220;14.480;2023-02-28T22:01:04;29.47;;;15.60;;
17890;SDS011;9071;48.220;14.480;2023-02-28T22:06:10;27.43;;;15.10;;
17890;SDS011;9071;48.220;14.480;2023-02-28T22:11:13;26.70;;;14.33;;
17890;SDS011;9071;48.220;14.480;2023-02-28T22:16:17;23.23;;;13.83;;
17890;SDS011;9071;48.220;14.480;2023-02-28T22:21:22;25.90;;;14.23;;
17890;SDS011;9071;48.220;14.480;2023-02-28T22:26:24;24.43;;;13.67;;
17890;SDS011;9071;48.220;14.480;2023-02-28T22:31:27;28.80;;;14.07;;
17890;SDS011;9071;48.220;14.480;2023-02-28T22:36:32;24.27;;;13.07;;
17890;SDS011;9071;48.220;14.480;2023-02-28T22:41:34;28.37;;;15.17;;
17890;SDS011;9071;48.220;14.480;2023-02-28T22:46:36;29.30;;;15.57;;
17890;SDS011;9071;48.220;14.480;2023-02-28T22:51:40;25.40;;;14.17;;
17890;SDS011;9071;48.220;14.480;2023-02-28T22:56:42;25.53;;;13.90;;
17890;SDS011;9071;48.220;14.480;2023-02-28T23:01:44;27.23;;;15.07;;
17890;SDS011;9071;48.220;14.480;2023-02-28T23:06:47;25.37;;;13.60;;
17890;SDS011;9071;48.220;14.480;2023-02-28T23:11:49;27.17;;;14.80;;
17890;SDS011;9071;48.220;14.480;2023-02-28T23:16:52;27.80;;;15.27;;
17890;SDS011;9071;48.220;14.480;2023-02-28T23:21:56;29.17;;;14.90;;
17890;SDS011;9071;48.220;14.480;2023-02-28T23:27:00;31.67;;;16.00;;
17890;SDS011;9071;48.220;14.480;2023-02-28T23:32:04;30.03;;;15.93;;
17890;SDS011;9071;48.220;14.480;2023-02-28T23:37:08;29.60;;;15.17;;
17890;SDS011;9071;48.220;14.480;2023-02-28T23:42:10;28.27;;;15.03;;
17890;SDS011;9071;48.220;14.480;2023-02-28T23:47:13;32.57;;;16.57;;
17890;SDS011;9071;48.220;14.480;2023-02-28T23:52:17;28.10;;;14.90;;
17890;SDS011;9071;48.220;14.480;2023-02-28T23:57:19;29.40;;;15.73;;
